Terminal Aerodrome Forecast
Issued by NWS Green Bay, WI

Current Version | Previous Version | Text Only | Print | Product List | Glossary On
Versions: 1 2 3 4 5 6 7 8 9 10 11 12 13 14 15 16 17 18 19 20 21 22 23 24 25 26 27 28 29 30 31 32 33 34 35
000
FTUS43 KGRB 251100
TAFGRB
TAF
KGRB 251123Z 2512/2612 21006KT P6SM VCSH SCT060 BKN120
      WS010/24030KT
     FM251400 20010G18KT P6SM VCSH SCT040 BKN100
     FM251700 18010G15KT P6SM VCSH BKN040 BKN090
     FM260200 19005KT 5SM -SHRA BR SCT020 BKN035
     FM260800 22004KT 3SM BR SCT010 OVC018=

USA.gov is the U.S. government's official web portal to all federal, state and local government web resources and services.